createdAt,value
2019-02-09T00:01:46.302Z,8.78
2019-02-09T00:06:53.941Z,5.71
2019-02-09T00:12:01.559Z,5.87
2019-02-09T00:17:09.247Z,8.67
2019-02-09T00:22:16.902Z,7.26
2019-02-09T00:27:24.674Z,6.20
2019-02-09T00:32:32.346Z,5.58
2019-02-09T00:37:40.109Z,7.16
2019-02-09T00:42:47.737Z,7.47
2019-02-09T00:47:55.418Z,7.61
2019-02-09T00:53:03.055Z,7.04
2019-02-09T00:58:10.737Z,8.21
2019-02-09T01:03:18.374Z,8.95
2019-02-09T01:08:26.055Z,8.17
2019-02-09T01:13:33.603Z,10.49
2019-02-09T01:18:41.289Z,10.54
2019-02-09T01:23:48.933Z,9.71
2019-02-09T01:28:56.591Z,11.48
2019-02-09T01:34:04.287Z,9.61
2019-02-09T01:39:11.918Z,9.85
2019-02-09T01:44:19.569Z,9.35
2019-02-09T01:49:27.197Z,8.76
2019-02-09T01:54:34.880Z,8.70
2019-02-09T01:59:42.552Z,7.07
2019-02-09T02:04:50.251Z,8.74
2019-02-09T02:09:57.913Z,7.67
2019-02-09T02:15:05.623Z,6.34
2019-02-09T02:20:13.253Z,6.96
2019-02-09T02:25:20.960Z,10.73
2019-02-09T02:30:28.594Z,12.15
2019-02-09T02:35:36.247Z,11.06
2019-02-09T02:40:43.954Z,9.10
2019-02-09T02:45:51.601Z,10.33
2019-02-09T02:50:59.534Z,11.69
2019-02-09T02:56:07.194Z,14.02
2019-02-09T03:01:14.824Z,11.18
2019-02-09T03:06:22.576Z,11.62
2019-02-09T03:11:30.209Z,13.55
2019-02-09T03:16:45.575Z,12.58
2019-02-09T03:21:43.146Z,10.07
2019-02-09T03:26:50.862Z,11.90
2019-02-09T03:31:58.493Z,12.32
2019-02-09T03:37:06.199Z,9.99
2019-02-09T03:42:13.819Z,14.29
2019-02-09T03:47:21.496Z,11.53
2019-02-09T03:52:29.133Z,9.40
2019-02-09T03:57:36.783Z,14.38
2019-02-09T04:02:44.445Z,13.80
2019-02-09T04:07:52.092Z,11.29
2019-02-09T04:12:59.797Z,12.19
2019-02-09T04:18:07.461Z,9.62
2019-02-09T04:23:15.084Z,12.83
2019-02-09T04:28:22.745Z,13.84
2019-02-09T04:33:30.437Z,13.43
2019-02-09T04:38:38.084Z,12.06
2019-02-09T04:43:45.705Z,12.74
2019-02-09T04:48:53.376Z,13.31
2019-02-09T04:54:01.061Z,12.39
2019-02-09T04:59:08.726Z,13.99
2019-02-09T05:04:16.377Z,12.99
2019-02-09T05:09:24.957Z,13.82
2019-02-09T05:14:32.610Z,14.61
2019-02-09T05:19:40.313Z,9.66
2019-02-09T05:24:47.912Z,11.22
2019-02-09T05:29:55.532Z,9.49
2019-02-09T05:35:03.164Z,14.22
2019-02-09T05:40:10.804Z,11.93
2019-02-09T05:45:18.425Z,13.66
2019-02-09T05:50:26.037Z,15.11
2019-02-09T05:55:33.656Z,13.29
2019-02-09T06:00:41.312Z,11.87
2019-02-09T06:05:48.949Z,14.06
2019-02-09T06:10:56.610Z,10.61
2019-02-09T06:16:04.248Z,9.39
2019-02-09T06:21:11.970Z,8.36
2019-02-09T06:26:19.621Z,7.11
2019-02-09T06:31:27.286Z,5.70
2019-02-09T06:36:34.946Z,8.11
2019-02-09T06:41:42.634Z,9.43
2019-02-09T06:46:50.283Z,7.83
2019-02-09T06:51:58.331Z,8.67
2019-02-09T06:57:06.335Z,7.78
2019-02-09T07:02:14.131Z,12.84
2019-02-09T07:07:22.552Z,15.45
2019-02-09T07:12:30.200Z,10.12
2019-02-09T07:17:37.641Z,14.23
2019-02-09T07:22:45.300Z,11.82
2019-02-09T07:27:52.940Z,15.19
2019-02-09T07:33:00.664Z,14.17
2019-02-09T07:38:08.317Z,12.03
2019-02-09T07:43:15.965Z,10.69
2019-02-09T07:48:24.107Z,12.96
2019-02-09T07:53:30.820Z,12.13
2019-02-09T07:58:38.437Z,10.09
2019-02-09T08:03:46.121Z,12.13
2019-02-09T08:08:53.749Z,16.69
2019-02-09T08:14:01.464Z,15.92
2019-02-09T08:19:09.184Z,15.87
2019-02-09T08:24:16.851Z,18.06
2019-02-09T08:29:24.464Z,13.45
2019-02-09T08:34:32.120Z,16.36
2019-02-09T08:39:39.764Z,19.10
2019-02-09T08:44:47.447Z,18.14
2019-02-09T08:49:55.049Z,18.17
2019-02-09T08:55:02.757Z,20.34
2019-02-09T09:00:10.396Z,20.03
2019-02-09T09:05:20.357Z,20.92
2019-02-09T09:10:27.972Z,19.95
2019-02-09T09:15:35.633Z,21.24
2019-02-09T09:20:43.292Z,14.48
2019-02-09T09:25:51.020Z,23.04
2019-02-09T09:30:58.676Z,18.93
2019-02-09T09:36:06.354Z,17.00
2019-02-09T09:41:14.001Z,16.17
2019-02-09T09:46:21.654Z,18.23
2019-02-09T09:51:29.344Z,18.03
2019-02-09T09:56:36.990Z,14.85
2019-02-09T10:01:44.624Z,16.30
2019-02-09T10:06:52.313Z,17.93
2019-02-09T10:12:00.058Z,13.72
2019-02-09T10:17:07.701Z,12.92
2019-02-09T10:22:15.340Z,16.43
2019-02-09T10:27:23.000Z,15.81
2019-02-09T10:32:30.648Z,14.94
2019-02-09T10:37:38.345Z,11.35
2019-02-09T10:42:46.026Z,15.76
2019-02-09T10:47:53.724Z,15.83
2019-02-09T10:53:01.406Z,16.14
2019-02-09T10:58:09.104Z,10.95
2019-02-09T11:03:16.746Z,14.98
2019-02-09T11:08:24.463Z,14.13
2019-02-09T11:13:32.997Z,14.92
2019-02-09T11:18:40.728Z,10.88
2019-02-09T11:23:48.342Z,15.22
2019-02-09T11:28:55.999Z,14.01
2019-02-09T11:34:03.638Z,15.85
2019-02-09T11:39:11.119Z,9.96
2019-02-09T11:44:18.816Z,16.43
2019-02-09T11:49:26.425Z,20.14
2019-02-09T11:54:34.132Z,13.95
2019-02-09T11:59:41.815Z,17.04
2019-02-09T12:04:49.461Z,12.87
2019-02-09T12:09:57.229Z,18.35
2019-02-09T12:15:04.836Z,18.02
2019-02-09T12:20:12.524Z,17.87
2019-02-09T12:25:20.203Z,13.79
2019-02-09T12:30:27.844Z,15.30
2019-02-09T12:35:35.575Z,12.79
2019-02-09T12:40:43.230Z,18.64
2019-02-09T12:45:50.880Z,11.89
2019-02-09T12:50:58.855Z,14.81
2019-02-09T12:56:06.517Z,12.88
2019-02-09T13:01:14.168Z,15.43
2019-02-09T13:06:21.846Z,11.88
2019-02-09T13:11:29.491Z,14.31
2019-02-09T13:16:37.162Z,15.43
2019-02-09T13:21:44.768Z,10.70
2019-02-09T13:26:52.441Z,11.51
2019-02-09T13:32:00.076Z,13.37
2019-02-09T13:37:07.788Z,8.18
2019-02-09T13:42:15.420Z,10.54
2019-02-09T13:47:23.060Z,9.13
2019-02-09T13:52:30.707Z,12.99
2019-02-09T13:57:38.469Z,16.05
2019-02-09T14:02:46.101Z,10.59
2019-02-09T14:07:53.736Z,13.96
2019-02-09T14:13:01.368Z,11.87
2019-02-09T14:18:09.006Z,11.37
2019-02-09T14:23:16.700Z,12.36
2019-02-09T14:28:24.360Z,12.61
2019-02-09T14:33:32.061Z,17.53
2019-02-09T14:38:39.688Z,14.97
2019-02-09T14:43:47.357Z,20.35
2019-02-09T14:48:55.025Z,18.48
2019-02-09T14:54:02.719Z,15.03
2019-02-09T14:59:10.372Z,17.08
2019-02-09T15:04:18.020Z,18.55
2019-02-09T15:09:25.722Z,22.36
2019-02-09T15:14:33.442Z,22.52
2019-02-09T15:19:41.076Z,22.75
2019-02-09T15:24:48.709Z,21.85
2019-02-09T15:29:56.360Z,15.66
2019-02-09T15:35:04.103Z,19.23
2019-02-09T15:40:11.732Z,20.33
2019-02-09T15:45:19.473Z,20.90
2019-02-09T15:50:27.110Z,11.90
2019-02-09T15:55:34.746Z,20.83
2019-02-09T16:00:42.552Z,13.71
2019-02-09T16:05:50.185Z,16.13
2019-02-09T16:10:57.875Z,18.06
2019-02-09T16:16:05.520Z,15.93
2019-02-09T16:21:13.177Z,14.74
2019-02-09T16:26:20.897Z,13.52
2019-02-09T16:31:28.561Z,14.04
2019-02-09T16:36:36.165Z,19.11
2019-02-09T16:41:43.810Z,12.64
2019-02-09T16:46:51.456Z,14.18
2019-02-09T16:51:59.104Z,10.77
2019-02-09T16:57:06.758Z,14.67
2019-02-09T17:02:14.529Z,14.91
2019-02-09T17:07:22.161Z,16.15
2019-02-09T17:12:29.816Z,15.55
2019-02-09T17:17:37.541Z,14.41
2019-02-09T17:22:45.265Z,17.67
2019-02-09T17:27:52.897Z,16.06
2019-02-09T17:33:00.544Z,18.38
2019-02-09T17:38:08.197Z,18.77
2019-02-09T17:43:16.010Z,17.26
2019-02-09T17:48:23.631Z,20.55
2019-02-09T17:53:31.374Z,18.09
2019-02-09T17:58:38.994Z,18.26
2019-02-09T18:03:46.622Z,20.32
2019-02-09T18:08:54.325Z,20.38
2019-02-09T18:14:01.989Z,19.03
2019-02-09T18:19:09.600Z,17.58
2019-02-09T18:24:17.333Z,18.54
2019-02-09T18:29:27.422Z,19.23
2019-02-09T18:34:25.053Z,17.92
2019-02-09T18:39:32.964Z,21.36
2019-02-09T18:44:41.428Z,22.15
2019-02-09T18:49:49.134Z,17.96
2019-02-09T18:54:57.521Z,19.71
2019-02-09T19:00:07.282Z,14.23
2019-02-09T19:05:14.949Z,14.52
2019-02-09T19:10:22.604Z,14.83
2019-02-09T19:15:30.261Z,13.12
2019-02-09T19:20:37.903Z,20.72
2019-02-09T19:25:45.524Z,15.31
2019-02-09T19:30:53.193Z,18.18
2019-02-09T19:36:00.822Z,20.32
2019-02-09T19:41:08.546Z,19.80
2019-02-09T19:46:16.302Z,19.86
2019-02-09T19:51:24.004Z,20.46
2019-02-09T19:56:31.654Z,18.81
2019-02-09T20:01:39.333Z,18.72
2019-02-09T20:06:46.970Z,17.57
2019-02-09T20:11:54.629Z,17.94
2019-02-09T20:17:02.265Z,21.31
2019-02-09T20:22:09.948Z,19.31
2019-02-09T20:27:17.563Z,18.21
2019-02-09T20:32:25.268Z,18.81
2019-02-09T20:37:32.924Z,20.58
2019-02-09T20:42:42.195Z,20.84
2019-02-09T20:47:50.186Z,17.39
2019-02-09T20:52:57.073Z,16.72
2019-02-09T20:58:04.741Z,19.75
2019-02-09T21:03:12.390Z,15.23
2019-02-09T21:08:20.034Z,18.22
2019-02-09T21:13:27.706Z,20.24
2019-02-09T21:18:35.342Z,21.20
2019-02-09T21:23:42.970Z,19.69
2019-02-09T21:28:50.705Z,23.64
2019-02-09T21:33:58.344Z,18.23
2019-02-09T21:39:06.094Z,19.97
2019-02-09T21:44:13.735Z,18.44
2019-02-09T21:49:21.426Z,16.20
2019-02-09T21:54:29.038Z,19.77
2019-02-09T21:59:36.721Z,21.48
2019-02-09T22:04:44.361Z,19.31
2019-02-09T22:09:52.029Z,15.90
2019-02-09T22:14:59.656Z,19.54
2019-02-09T22:20:07.303Z,20.28
2019-02-09T22:25:14.977Z,18.49
2019-02-09T22:30:25.562Z,19.76
2019-02-09T22:35:23.226Z,14.64
2019-02-09T22:40:30.841Z,21.76
2019-02-09T22:45:38.514Z,21.98
2019-02-09T22:50:46.165Z,19.87
2019-02-09T22:55:53.828Z,24.13
2019-02-09T23:01:01.474Z,19.60
2019-02-09T23:06:09.165Z,20.15
2019-02-09T23:11:16.784Z,17.63
2019-02-09T23:21:30.725Z,19.57
2019-02-09T23:26:38.368Z,15.34
2019-02-09T23:31:46.089Z,20.78
2019-02-09T23:36:53.742Z,19.22
2019-02-09T23:42:01.369Z,20.41
2019-02-09T23:47:08.980Z,18.29
2019-02-09T23:52:16.634Z,21.62
2019-02-09T23:57:30.465Z,18.68
